createdAt,value
2023-05-01T00:00:05.692Z,956.90
2023-05-01T00:01:05.394Z,956.88
2023-05-01T00:02:05.395Z,956.90
2023-05-01T00:03:05.403Z,956.84
2023-05-01T00:04:05.576Z,956.89
2023-05-01T00:05:05.385Z,956.79
2023-05-01T00:06:05.438Z,956.77
2023-05-01T00:07:05.355Z,956.84
2023-05-01T00:08:05.354Z,956.79
2023-05-01T00:09:05.308Z,956.83
2023-05-01T00:10:05.343Z,956.77
2023-05-01T00:11:05.280Z,956.74
2023-05-01T00:12:05.292Z,956.75
2023-05-01T00:13:05.265Z,956.74
2023-05-01T00:14:05.248Z,956.76
2023-05-01T00:15:05.244Z,956.72
2023-05-01T00:16:05.250Z,956.71
2023-05-01T00:17:05.231Z,956.72
2023-05-01T00:18:05.285Z,956.70
2023-05-01T00:19:05.225Z,956.72
2023-05-01T00:20:05.277Z,956.66
2023-05-01T00:21:05.186Z,956.65
2023-05-01T00:22:05.315Z,956.66
2023-05-01T00:23:05.154Z,956.61
2023-05-01T00:24:05.174Z,956.63
2023-05-01T00:25:05.129Z,956.57
2023-05-01T00:26:05.212Z,956.55
2023-05-01T00:27:05.115Z,956.58
2023-05-01T00:28:05.137Z,956.57
2023-05-01T00:29:05.083Z,956.53
2023-05-01T00:30:05.060Z,956.51
2023-05-01T00:31:05.081Z,956.51
2023-05-01T00:32:05.127Z,956.52
2023-05-01T00:33:05.109Z,956.46
2023-05-01T00:34:05.069Z,956.49
2023-05-01T00:35:05.069Z,956.49
2023-05-01T00:36:05.001Z,956.49
2023-05-01T00:37:05.113Z,956.44
2023-05-01T00:38:04.983Z,956.45
2023-05-01T00:39:04.976Z,956.43
2023-05-01T00:40:04.959Z,956.44
2023-05-01T00:41:04.959Z,956.43
2023-05-01T00:42:04.945Z,956.46
2023-05-01T00:43:04.927Z,956.43
2023-05-01T00:44:04.957Z,956.46
2023-05-01T00:45:04.910Z,956.43
2023-05-01T00:46:04.928Z,956.46
2023-05-01T00:47:04.901Z,956.45
2023-05-01T00:48:04.913Z,956.42
2023-05-01T00:49:04.862Z,956.40
2023-05-01T00:50:04.937Z,956.35
2023-05-01T00:51:04.856Z,956.38
2023-05-01T00:52:04.862Z,956.40
2023-05-01T00:53:04.879Z,956.40
2023-05-01T00:54:04.819Z,956.38
2023-05-01T00:55:04.868Z,956.36
2023-05-01T00:56:04.783Z,956.37
2023-05-01T00:57:04.799Z,956.37
2023-05-01T00:58:04.757Z,956.37
2023-05-01T00:59:04.749Z,956.38
2023-05-01T01:00:04.774Z,956.35
2023-05-01T01:01:04.820Z,956.34
2023-05-01T01:02:04.730Z,956.31
2023-05-01T01:03:04.736Z,956.36
2023-05-01T01:04:04.740Z,956.30
2023-05-01T01:05:04.681Z,956.31
2023-05-01T01:06:04.825Z,956.32
2023-05-01T01:07:04.676Z,956.37
2023-05-01T01:08:04.642Z,956.30
2023-05-01T01:09:04.632Z,956.27
2023-05-01T01:10:04.685Z,956.29
2023-05-01T01:11:04.622Z,956.29
2023-05-01T01:12:04.645Z,956.31
2023-05-01T01:13:04.602Z,956.26
2023-05-01T01:14:04.586Z,956.21
2023-05-01T01:15:04.574Z,956.19
2023-05-01T01:16:04.573Z,956.23
2023-05-01T01:17:04.672Z,956.23
2023-05-01T01:18:04.602Z,956.24
2023-05-01T01:19:04.540Z,956.24
2023-05-01T01:20:04.506Z,956.26
2023-05-01T01:21:04.500Z,956.24
2023-05-01T01:22:04.490Z,956.28
2023-05-01T01:23:04.505Z,956.21
2023-05-01T01:24:04.463Z,956.20
2023-05-01T01:25:04.463Z,956.26
2023-05-01T01:26:04.457Z,956.21
2023-05-01T01:27:04.531Z,956.20
2023-05-01T01:28:04.423Z,956.18
2023-05-01T01:29:04.419Z,956.22
2023-05-01T01:30:04.401Z,956.21
2023-05-01T01:31:04.449Z,956.22
2023-05-01T01:32:04.400Z,956.20
2023-05-01T01:33:04.438Z,956.27
2023-05-01T01:34:04.466Z,956.26
2023-05-01T01:35:04.359Z,956.26
2023-05-01T01:36:04.347Z,956.23
2023-05-01T01:37:04.354Z,956.24
2023-05-01T01:38:04.323Z,956.21
2023-05-01T01:39:04.331Z,956.18
2023-05-01T01:40:04.289Z,956.18
2023-05-01T01:41:04.308Z,956.19
2023-05-01T01:42:04.274Z,956.15
2023-05-01T01:43:04.270Z,956.22
2023-05-01T01:44:04.288Z,956.10
2023-05-01T01:45:04.233Z,956.13
2023-05-01T01:46:04.238Z,956.12
2023-05-01T01:47:04.221Z,956.11
2023-05-01T01:48:04.235Z,956.10
2023-05-01T01:49:04.189Z,956.09
2023-05-01T01:50:04.403Z,956.12
2023-05-01T01:51:04.190Z,956.12
2023-05-01T01:52:04.159Z,956.05
2023-05-01T01:53:04.172Z,956.08
2023-05-01T01:54:04.148Z,956.06
2023-05-01T01:55:04.171Z,956.09
2023-05-01T01:56:04.202Z,956.05
2023-05-01T01:57:04.098Z,956.05
2023-05-01T01:58:04.101Z,956.09
2023-05-01T01:59:04.084Z,956.05
2023-05-01T02:00:04.165Z,956.04
2023-05-01T02:01:04.085Z,956.02
2023-05-01T02:02:04.189Z,955.98
2023-05-01T02:03:04.115Z,955.94
2023-05-01T02:04:04.188Z,956.01
2023-05-01T02:05:04.029Z,955.96
2023-05-01T02:06:04.027Z,955.94
2023-05-01T02:07:04.023Z,955.98
2023-05-01T02:08:03.994Z,955.88
2023-05-01T02:09:03.978Z,955.94
2023-05-01T02:10:03.977Z,955.87
2023-05-01T02:11:03.944Z,955.94
2023-05-01T02:12:03.927Z,955.89
2023-05-01T02:13:03.936Z,955.89
2023-05-01T02:14:03.904Z,955.87
2023-05-01T02:15:03.912Z,955.84
2023-05-01T02:16:03.951Z,955.86
2023-05-01T02:17:03.893Z,955.86
2023-05-01T02:18:03.924Z,955.81
2023-05-01T02:19:03.859Z,955.85
2023-05-01T02:20:03.845Z,955.85
2023-05-01T02:21:03.837Z,955.77
2023-05-01T02:22:03.831Z,955.80
2023-05-01T02:23:03.820Z,955.76
2023-05-01T02:24:03.803Z,955.84
2023-05-01T02:25:03.792Z,955.77
2023-05-01T02:26:03.795Z,955.74
2023-05-01T02:27:03.775Z,955.72
2023-05-01T02:28:03.782Z,955.68
2023-05-01T02:29:03.745Z,955.70
2023-05-01T02:30:03.747Z,955.69
2023-05-01T02:31:03.728Z,955.71
2023-05-01T02:32:03.826Z,955.64
2023-05-01T02:33:03.729Z,955.69
2023-05-01T02:34:03.695Z,955.66
2023-05-01T02:35:03.693Z,955.68
2023-05-01T02:36:03.670Z,955.71
2023-05-01T02:37:03.656Z,955.67
2023-05-01T02:38:03.664Z,955.70
2023-05-01T02:39:03.687Z,955.68
2023-05-01T02:40:03.718Z,955.68
2023-05-01T02:41:03.764Z,955.62
2023-05-01T02:42:03.638Z,955.64
2023-05-01T02:43:03.622Z,955.68
2023-05-01T02:44:03.573Z,955.61
2023-05-01T02:45:03.598Z,955.60
2023-05-01T02:46:03.595Z,955.57
2023-05-01T02:47:03.623Z,955.57
2023-05-01T02:48:03.620Z,955.54
2023-05-01T02:49:03.527Z,955.55
2023-05-01T02:50:03.504Z,955.53
2023-05-01T02:51:03.515Z,955.51
2023-05-01T02:52:03.502Z,955.52
2023-05-01T02:53:03.494Z,955.49
2023-05-01T02:54:03.466Z,955.49
2023-05-01T02:55:03.452Z,955.50
2023-05-01T02:56:03.486Z,955.47
2023-05-01T02:57:03.465Z,955.45
2023-05-01T02:58:03.468Z,955.47
2023-05-01T02:59:03.435Z,955.45
2023-05-01T03:00:03.495Z,955.48
2023-05-01T03:01:03.505Z,955.44
2023-05-01T03:02:03.376Z,955.45
2023-05-01T03:03:03.432Z,955.47
2023-05-01T03:04:03.384Z,955.47
2023-05-01T03:05:03.369Z,955.43
2023-05-01T03:06:03.478Z,955.48
2023-05-01T03:07:03.324Z,955.49
2023-05-01T03:08:03.319Z,955.45
2023-05-01T03:09:03.314Z,955.43
2023-05-01T03:10:03.283Z,955.41
2023-05-01T03:11:03.315Z,955.40
2023-05-01T03:12:03.261Z,955.37
2023-05-01T03:13:03.355Z,955.41
2023-05-01T03:14:03.253Z,955.42
2023-05-01T03:15:03.257Z,955.42
2023-05-01T03:16:03.254Z,955.49
2023-05-01T03:17:03.234Z,955.51
2023-05-01T03:18:03.224Z,955.52
2023-05-01T03:19:03.205Z,955.52
2023-05-01T03:20:03.172Z,955.51
2023-05-01T03:21:03.163Z,955.45
2023-05-01T03:22:03.161Z,955.49
2023-05-01T03:23:03.139Z,955.46
2023-05-01T03:24:03.172Z,955.45
2023-05-01T03:25:03.114Z,955.39
2023-05-01T03:26:03.108Z,955.41
2023-05-01T03:27:03.105Z,955.35
2023-05-01T03:28:03.078Z,955.42
2023-05-01T03:29:03.075Z,955.44
2023-05-01T03:30:03.065Z,955.46
2023-05-01T03:31:03.479Z,955.42
2023-05-01T03:32:03.077Z,955.41
2023-05-01T03:33:03.045Z,955.38
2023-05-01T03:34:03.024Z,955.35
2023-05-01T03:35:03.087Z,955.39
2023-05-01T03:36:03.000Z,955.39
2023-05-01T03:37:02.977Z,955.41
2023-05-01T03:38:02.973Z,955.41
2023-05-01T03:39:02.965Z,955.36
2023-05-01T03:40:02.955Z,955.38
2023-05-01T03:41:03.003Z,955.36
2023-05-01T03:42:02.926Z,955.39
2023-05-01T03:43:02.906Z,955.34
2023-05-01T03:44:02.914Z,955.36
2023-05-01T03:45:02.877Z,955.33
2023-05-01T03:46:02.945Z,955.35
2023-05-01T03:47:02.894Z,955.40
2023-05-01T03:48:02.886Z,955.33
2023-05-01T03:49:02.853Z,955.37
2023-05-01T03:50:02.837Z,955.38
2023-05-01T03:51:02.819Z,955.36
2023-05-01T03:52:02.809Z,955.34
2023-05-01T03:53:02.831Z,955.37
2023-05-01T03:54:02.812Z,955.37
2023-05-01T03:55:02.787Z,955.31
2023-05-01T03:56:02.805Z,955.36
2023-05-01T03:57:02.755Z,955.36
2023-05-01T03:58:02.749Z,955.36
2023-05-01T03:59:02.828Z,955.36
2023-05-01T04:00:03.359Z,955.34
2023-05-01T04:01:02.727Z,955.35
2023-05-01T04:02:02.745Z,955.31
2023-05-01T04:03:02.870Z,955.32
2023-05-01T04:04:02.898Z,955.27
2023-05-01T04:05:02.682Z,955.29
2023-05-01T04:06:02.677Z,955.31
2023-05-01T04:07:02.642Z,955.29
2023-05-01T04:08:02.726Z,955.28
2023-05-01T04:09:02.636Z,955.30
2023-05-01T04:10:02.625Z,955.28
2023-05-01T04:11:02.621Z,955.27
2023-05-01T04:12:02.592Z,955.26
2023-05-01T04:13:02.573Z,955.27
2023-05-01T04:14:02.874Z,955.24
2023-05-01T04:15:02.602Z,955.27
2023-05-01T04:16:02.644Z,955.18
2023-05-01T04:17:02.554Z,955.22
2023-05-01T04:18:02.615Z,955.24
2023-05-01T04:19:02.523Z,955.24
2023-05-01T04:20:02.498Z,955.21
2023-05-01T04:21:02.488Z,955.21
2023-05-01T04:22:02.493Z,955.24
2023-05-01T04:23:02.460Z,955.24
2023-05-01T04:24:02.583Z,955.22
2023-05-01T04:25:02.461Z,955.22
2023-05-01T04:26:02.432Z,955.21
2023-05-01T04:27:03.185Z,955.22
2023-05-01T04:28:02.431Z,955.21
2023-05-01T04:29:02.466Z,955.22
2023-05-01T04:30:02.558Z,955.26
2023-05-01T04:31:02.421Z,955.27
2023-05-01T04:32:03.345Z,955.26
2023-05-01T04:33:02.438Z,955.27
2023-05-01T04:34:02.380Z,955.29
2023-05-01T04:35:02.334Z,955.32
2023-05-01T04:36:02.319Z,955.26
2023-05-01T04:37:02.368Z,955.27
2023-05-01T04:38:02.300Z,955.30
2023-05-01T04:39:02.343Z,955.24
2023-05-01T04:40:02.380Z,955.22
2023-05-01T04:41:02.283Z,955.23
2023-05-01T04:42:02.267Z,955.11
2023-05-01T04:43:02.245Z,955.21
2023-05-01T04:44:02.240Z,955.21
2023-05-01T04:45:02.233Z,955.21
2023-05-01T04:46:02.256Z,955.11
2023-05-01T04:47:02.204Z,955.17
2023-05-01T04:48:02.248Z,955.16
2023-05-01T04:49:02.281Z,955.14
2023-05-01T04:50:02.200Z,955.20
2023-05-01T04:51:02.161Z,955.22
2023-05-01T04:52:02.144Z,955.21
2023-05-01T04:53:02.204Z,955.22
2023-05-01T04:54:02.211Z,955.26
2023-05-01T04:55:02.097Z,955.21
2023-05-01T04:56:02.110Z,955.26
2023-05-01T04:57:02.078Z,955.26
2023-05-01T04:58:02.068Z,955.27
2023-05-01T04:59:02.247Z,955.22
2023-05-01T05:00:02.073Z,955.21
2023-05-01T05:01:02.095Z,955.23
2023-05-01T05:02:02.150Z,955.23
2023-05-01T05:03:02.177Z,955.24
2023-05-01T05:04:02.575Z,955.24
2023-05-01T05:05:02.003Z,955.19
2023-05-01T05:06:02.049Z,955.19
2023-05-01T05:07:01.969Z,955.19
2023-05-01T05:08:01.982Z,955.24
2023-05-01T05:09:02.233Z,955.28
2023-05-01T05:10:01.938Z,955.28
2023-05-01T05:11:01.918Z,955.21
2023-05-01T05:12:01.913Z,955.21
2023-05-01T05:13:01.901Z,955.20
2023-05-01T05:14:02.270Z,955.23
2023-05-01T05:15:01.970Z,955.21
2023-05-01T05:16:01.945Z,955.20
2023-05-01T05:17:01.868Z,955.16
2023-05-01T05:18:01.915Z,955.23
2023-05-01T05:19:02.401Z,955.21
2023-05-01T05:20:01.830Z,955.21
2023-05-01T05:21:01.820Z,955.26
2023-05-01T05:22:01.853Z,955.23
2023-05-01T05:23:01.817Z,955.24
2023-05-01T05:24:01.819Z,955.23
2023-05-01T05:25:01.764Z,955.19
2023-05-01T05:26:01.755Z,955.20
2023-05-01T05:27:01.743Z,955.18
2023-05-01T05:28:01.794Z,955.21
2023-05-01T05:29:01.765Z,955.25
2023-05-01T05:30:01.734Z,955.18
2023-05-01T05:31:01.748Z,955.26
2023-05-01T05:32:01.972Z,955.26
2023-05-01T05:33:01.717Z,955.27
2023-05-01T05:34:01.739Z,955.32
2023-05-01T05:35:01.694Z,955.29
2023-05-01T05:36:01.661Z,955.31
2023-05-01T05:37:01.632Z,955.27
2023-05-01T05:38:01.633Z,955.32
2023-05-01T05:39:01.663Z,955.30
2023-05-01T05:40:01.612Z,955.33
2023-05-01T05:41:01.608Z,955.32
2023-05-01T05:42:01.709Z,955.29
2023-05-01T05:43:01.568Z,955.31
2023-05-01T05:44:01.614Z,955.32
2023-05-01T05:45:01.596Z,955.35
2023-05-01T05:46:01.617Z,955.34
2023-05-01T05:47:01.591Z,955.34
2023-05-01T05:48:01.538Z,955.30
2023-05-01T05:49:01.558Z,955.37
2023-05-01T05:50:01.501Z,955.37
2023-05-01T05:51:01.752Z,955.34
2023-05-01T05:52:01.476Z,955.35
2023-05-01T05:53:01.448Z,955.34
2023-05-01T05:54:01.482Z,955.39
2023-05-01T05:55:01.454Z,955.37
2023-05-01T05:56:01.457Z,955.41
2023-05-01T05:57:01.433Z,955.37
2023-05-01T05:58:01.404Z,955.40
2023-05-01T05:59:01.406Z,955.41
2023-05-01T06:00:01.428Z,955.40
2023-05-01T06:01:01.363Z,955.40
2023-05-01T06:02:01.404Z,955.38
2023-05-01T06:03:01.423Z,955.44
2023-05-01T06:04:01.345Z,955.44
2023-05-01T06:05:01.385Z,955.45
2023-05-01T06:06:01.482Z,955.46
2023-05-01T06:07:01.313Z,955.38
2023-05-01T06:08:01.314Z,955.40
2023-05-01T06:09:01.406Z,955.37
2023-05-01T06:10:01.269Z,955.38
2023-05-01T06:11:01.256Z,955.37
2023-05-01T06:12:01.344Z,955.38
2023-05-01T06:13:05.593Z,955.36
2023-05-01T06:14:02.342Z,955.37
2023-05-01T06:15:01.239Z,955.35
2023-05-01T06:16:01.243Z,955.36
2023-05-01T06:17:01.280Z,955.38
2023-05-01T06:18:01.194Z,955.39
2023-05-01T06:19:01.188Z,955.37
2023-05-01T06:20:01.159Z,955.35
2023-05-01T06:21:01.146Z,955.31
2023-05-01T06:22:01.185Z,955.33
2023-05-01T06:23:01.149Z,955.31
2023-05-01T06:24:01.141Z,955.25
2023-05-01T06:25:01.102Z,955.32
2023-05-01T06:26:01.258Z,955.33
2023-05-01T06:27:01.583Z,955.27
2023-05-01T06:28:01.073Z,955.27
2023-05-01T06:29:01.087Z,955.23
2023-05-01T06:30:01.898Z,955.26
2023-05-01T06:31:01.115Z,955.27
2023-05-01T06:32:01.728Z,955.30
2023-05-01T06:33:01.103Z,955.27
2023-05-01T06:34:01.004Z,955.28
2023-05-01T06:35:01.010Z,955.31
2023-05-01T06:36:01.008Z,955.32
2023-05-01T06:37:00.973Z,955.36
2023-05-01T06:38:01.018Z,955.31
2023-05-01T06:39:00.950Z,955.33
2023-05-01T06:40:00.997Z,955.30
2023-05-01T06:41:02.336Z,955.31
2023-05-01T06:42:00.930Z,955.30
2023-05-01T06:43:00.938Z,955.30
2023-05-01T06:44:02.480Z,955.31
2023-05-01T06:45:00.896Z,955.32
2023-05-01T06:46:00.867Z,955.32
2023-05-01T06:47:00.870Z,955.33
2023-05-01T06:48:00.905Z,955.30
2023-05-01T06:49:00.822Z,955.34
2023-05-01T06:50:02.896Z,955.34
2023-05-01T06:51:00.825Z,955.32
2023-05-01T06:52:00.908Z,955.33
2023-05-01T06:53:00.778Z,955.32
2023-05-01T06:54:00.791Z,955.34
2023-05-01T06:55:00.838Z,955.33
2023-05-01T06:56:00.742Z,955.39
2023-05-01T06:57:00.750Z,955.37
2023-05-01T06:58:02.709Z,955.38
2023-05-01T06:59:01.041Z,955.39
2023-05-01T07:00:00.740Z,955.36
2023-05-01T07:01:00.803Z,955.34
2023-05-01T07:02:00.748Z,955.37
2023-05-01T07:03:00.718Z,955.36
2023-05-01T07:04:00.664Z,955.38
2023-05-01T07:05:00.653Z,955.43
2023-05-01T07:06:00.688Z,955.39
2023-05-01T07:07:01.387Z,955.38
2023-05-01T07:08:01.546Z,955.41
2023-05-01T07:09:00.627Z,955.42
2023-05-01T07:10:00.756Z,955.37
2023-05-01T07:11:00.596Z,955.38
2023-05-01T07:12:00.571Z,955.39
2023-05-01T07:13:01.396Z,955.38
2023-05-01T07:14:00.556Z,955.40
2023-05-01T07:15:00.575Z,955.43
2023-05-01T07:16:00.565Z,955.38
2023-05-01T07:17:00.722Z,955.39
2023-05-01T07:18:00.569Z,955.35
2023-05-01T07:19:00.489Z,955.37
2023-05-01T07:20:00.837Z,955.39
2023-05-01T07:21:00.481Z,955.38
2023-05-01T07:22:00.543Z,955.35
2023-05-01T07:23:00.491Z,955.35
2023-05-01T07:24:00.444Z,955.31
2023-05-01T07:25:00.433Z,955.30
2023-05-01T07:26:00.449Z,955.32
2023-05-01T07:27:00.434Z,955.29
2023-05-01T07:28:00.397Z,955.29
2023-05-01T07:29:00.381Z,955.31
2023-05-01T07:30:05.641Z,955.31
2023-05-01T07:31:00.369Z,955.28
2023-05-01T07:32:00.445Z,955.30
2023-05-01T07:33:21.430Z,955.26
2023-05-01T07:34:00.318Z,955.26
2023-05-01T07:35:00.343Z,955.28
2023-05-01T07:36:00.322Z,955.32
2023-05-01T07:37:21.329Z,955.27
2023-05-01T07:38:00.345Z,955.30
2023-05-01T07:39:00.305Z,955.35
2023-05-01T07:40:00.301Z,955.35
2023-05-01T07:41:00.325Z,955.33
2023-05-01T07:42:00.345Z,955.42
2023-05-01T07:43:00.233Z,955.40
2023-05-01T07:44:00.230Z,955.40
2023-05-01T07:45:00.245Z,955.41
2023-05-01T07:46:00.432Z,955.39
2023-05-01T07:47:00.181Z,955.39
2023-05-01T07:48:00.321Z,955.35
2023-05-01T07:49:00.289Z,955.38
2023-05-01T07:50:00.200Z,955.33
2023-05-01T07:51:00.163Z,955.35
2023-05-01T07:52:00.137Z,955.38
2023-05-01T07:53:00.174Z,955.36
2023-05-01T07:54:00.129Z,955.37
2023-05-01T07:55:00.169Z,955.37
2023-05-01T07:56:00.094Z,955.37
2023-05-01T07:57:00.079Z,955.37
2023-05-01T07:58:00.087Z,955.40
2023-05-01T07:59:00.292Z,955.45
2023-05-01T08:00:00.147Z,955.44
2023-05-01T08:01:00.083Z,955.47
2023-05-01T08:02:00.030Z,955.46
2023-05-01T08:03:00.072Z,955.45
2023-05-01T08:04:00.273Z,955.51
2023-05-01T08:05:00.091Z,955.49
2023-05-01T08:05:59.996Z,955.43
2023-05-01T08:06:59.991Z,955.44
2023-05-01T08:08:00.126Z,955.48
2023-05-01T08:09:00.114Z,955.50
2023-05-01T08:10:00.381Z,955.49
2023-05-01T08:10:59.947Z,955.50
2023-05-01T08:11:59.896Z,955.52
2023-05-01T08:12:59.905Z,955.52
2023-05-01T08:13:59.921Z,955.54
2023-05-01T08:14:59.927Z,955.52
2023-05-01T08:15:59.910Z,955.52
2023-05-01T08:16:59.862Z,955.54
2023-05-01T08:17:59.923Z,955.47
2023-05-01T08:18:59.845Z,955.55
2023-05-01T08:19:59.949Z,955.55
2023-05-01T08:20:59.913Z,955.53
2023-05-01T08:21:59.877Z,955.58
2023-05-01T08:22:59.896Z,955.56
2023-05-01T08:23:59.830Z,955.56
2023-05-01T08:24:59.864Z,955.57
2023-05-01T08:25:59.929Z,955.59
2023-05-01T08:26:59.755Z,955.56
2023-05-01T08:27:59.742Z,955.62
2023-05-01T08:28:59.718Z,955.62
2023-05-01T08:29:59.777Z,955.57
2023-05-01T08:30:59.743Z,955.61
2023-05-01T08:31:59.788Z,955.60
2023-05-01T08:32:59.732Z,955.58
2023-05-01T08:33:59.692Z,955.58
2023-05-01T08:35:00.799Z,955.61
2023-05-01T08:36:00.750Z,955.58
2023-05-01T08:36:59.629Z,955.67
2023-05-01T08:37:59.614Z,955.62
2023-05-01T08:38:59.620Z,955.66
2023-05-01T08:39:59.671Z,955.69
2023-05-01T08:40:59.589Z,955.64
2023-05-01T08:41:59.581Z,955.65
2023-05-01T08:42:59.579Z,955.67
2023-05-01T08:43:59.546Z,955.68
2023-05-01T08:44:59.570Z,955.68
2023-05-01T08:45:59.548Z,955.68
2023-05-01T08:46:59.597Z,955.68
2023-05-01T08:47:59.578Z,955.75
2023-05-01T08:48:59.510Z,955.70
2023-05-01T08:49:59.777Z,955.77
2023-05-01T08:50:59.569Z,955.70
2023-05-01T08:51:59.623Z,955.68
2023-05-01T08:52:59.457Z,955.73
2023-05-01T08:53:59.474Z,955.70
2023-05-01T08:54:59.413Z,955.70
2023-05-01T08:55:59.535Z,955.67
2023-05-01T08:56:59.399Z,955.70
2023-05-01T08:57:59.385Z,955.71
2023-05-01T08:58:59.768Z,955.70
2023-05-01T08:59:59.448Z,955.70
2023-05-01T09:00:59.459Z,955.72
2023-05-01T09:01:59.396Z,955.74
2023-05-01T09:02:59.432Z,955.68
2023-05-01T09:03:59.367Z,955.76
2023-05-01T09:04:59.328Z,955.78
2023-05-01T09:05:59.473Z,955.81
2023-05-01T09:06:59.299Z,955.78
2023-05-01T09:07:59.289Z,955.75
2023-05-01T09:08:59.262Z,955.82
2023-05-01T09:09:59.318Z,955.76
2023-05-01T09:10:59.334Z,955.81
2023-05-01T09:11:59.232Z,955.87
2023-05-01T09:12:59.285Z,955.86
2023-05-01T09:13:59.240Z,955.86
2023-05-01T09:14:59.224Z,955.84
2023-05-01T09:15:59.322Z,955.86
2023-05-01T09:16:59.170Z,955.78
2023-05-01T09:18:01.552Z,955.85
2023-05-01T09:19:00.298Z,955.83
2023-05-01T09:19:59.231Z,955.85
2023-05-01T09:20:59.247Z,955.85
2023-05-01T09:21:59.126Z,955.87
2023-05-01T09:22:59.114Z,955.89
2023-05-01T09:23:59.141Z,955.89
2023-05-01T09:24:59.171Z,955.89
2023-05-01T09:25:59.091Z,955.90
2023-05-01T09:26:59.068Z,955.89
2023-05-01T09:27:59.112Z,955.90
2023-05-01T09:28:59.037Z,955.91
2023-05-01T09:29:59.235Z,955.92
2023-05-01T09:30:59.030Z,955.95
2023-05-01T09:31:59.064Z,955.95
2023-05-01T09:32:59.045Z,955.95
2023-05-01T09:33:58.993Z,955.95
2023-05-01T09:34:58.984Z,955.93
2023-05-01T09:35:58.983Z,955.96
2023-05-01T09:36:58.951Z,955.89
2023-05-01T09:37:59.826Z,955.96
2023-05-01T09:38:59.009Z,955.97
2023-05-01T09:39:59.056Z,955.97
2023-05-01T09:40:58.918Z,955.95
2023-05-01T09:41:58.932Z,955.99
2023-05-01T09:42:58.939Z,956.02
2023-05-01T09:43:58.887Z,955.99
2023-05-01T09:44:58.854Z,955.99
2023-05-01T09:45:58.926Z,955.95
2023-05-01T09:46:58.839Z,955.98
2023-05-01T09:47:58.854Z,955.97
2023-05-01T09:48:59.135Z,955.96
2023-05-01T09:49:58.952Z,955.99
2023-05-01T09:50:58.846Z,955.99
2023-05-01T09:51:58.788Z,956.03
2023-05-01T09:52:58.782Z,956.00
2023-05-01T09:53:58.854Z,956.07
2023-05-01T09:54:58.751Z,956.09
2023-05-01T09:55:58.744Z,956.10
2023-05-01T09:56:58.769Z,956.09
2023-05-01T09:57:58.739Z,956.05
2023-05-01T09:58:58.739Z,956.07
2023-05-01T09:59:58.747Z,956.05
2023-05-01T10:00:58.721Z,956.16
2023-05-01T10:01:58.867Z,956.15
2023-05-01T10:02:58.790Z,956.12
2023-05-01T10:03:58.792Z,956.15
2023-05-01T10:04:58.640Z,956.13
2023-05-01T10:05:58.674Z,956.13
2023-05-01T10:06:58.732Z,956.13
2023-05-01T10:07:58.657Z,956.14
2023-05-01T10:08:58.618Z,956.13
2023-05-01T10:10:00.845Z,956.06
2023-05-01T10:10:58.567Z,956.06
2023-05-01T10:11:58.566Z,956.11
2023-05-01T10:12:58.595Z,956.10
2023-05-01T10:13:58.547Z,956.16
2023-05-01T10:14:58.548Z,956.10
2023-05-01T10:15:58.539Z,956.10
2023-05-01T10:16:58.558Z,956.10
2023-05-01T10:17:58.587Z,956.11
2023-05-01T10:18:58.488Z,956.15
2023-05-01T10:19:58.865Z,956.12
2023-05-01T10:20:58.474Z,956.12
2023-05-01T10:21:58.450Z,956.13
2023-05-01T10:22:58.507Z,956.18
2023-05-01T10:23:58.415Z,956.10
2023-05-01T10:24:58.505Z,956.19
2023-05-01T10:25:59.142Z,956.15
2023-05-01T10:26:58.439Z,956.17
2023-05-01T10:27:58.405Z,956.15
2023-05-01T10:28:58.376Z,956.14
2023-05-01T10:29:58.621Z,956.14
2023-05-01T10:30:58.386Z,956.14
2023-05-01T10:31:58.565Z,956.16
2023-05-01T10:32:58.453Z,956.17
2023-05-01T10:33:58.375Z,956.23
2023-05-01T10:34:58.495Z,956.22
2023-05-01T10:35:58.285Z,956.17
2023-05-01T10:36:58.284Z,956.25
2023-05-01T10:37:58.322Z,956.19
2023-05-01T10:38:58.282Z,956.21
2023-05-01T10:39:58.294Z,956.22
2023-05-01T10:40:58.286Z,956.17
2023-05-01T10:41:58.272Z,956.16
2023-05-01T10:42:58.259Z,956.25
2023-05-01T10:43:58.206Z,956.21
2023-05-01T10:44:58.548Z,956.19
2023-05-01T10:45:58.199Z,956.20
2023-05-01T10:46:58.263Z,956.12
2023-05-01T10:47:58.182Z,956.19
2023-05-01T10:48:58.198Z,956.17
2023-05-01T10:49:58.141Z,956.10
2023-05-01T10:50:58.595Z,956.13
2023-05-01T10:51:58.262Z,956.10
2023-05-01T10:52:58.120Z,956.08
2023-05-01T10:53:58.085Z,956.09
2023-05-01T10:54:58.353Z,956.04
2023-05-01T10:55:58.139Z,956.05
2023-05-01T10:56:59.856Z,956.02
2023-05-01T10:57:58.042Z,955.98
2023-05-01T10:58:58.046Z,956.02
2023-05-01T10:59:58.027Z,956.00
2023-05-01T11:00:58.091Z,955.99
2023-05-01T11:01:58.113Z,955.96
2023-05-01T11:02:58.101Z,956.00
2023-05-01T11:03:57.979Z,955.98
2023-05-01T11:04:58.256Z,955.98
2023-05-01T11:05:58.109Z,956.04
2023-05-01T11:06:58.020Z,955.97
2023-05-01T11:07:57.959Z,955.96
2023-05-01T11:08:57.943Z,955.93
2023-05-01T11:09:57.920Z,955.97
2023-05-01T11:10:57.907Z,955.95
2023-05-01T11:11:57.894Z,955.98
2023-05-01T11:12:57.903Z,955.97
2023-05-01T11:13:57.871Z,955.98
2023-05-01T11:14:58.297Z,955.94
2023-05-01T11:15:57.881Z,955.92
2023-05-01T11:16:57.992Z,955.92
2023-05-01T11:17:57.992Z,955.94
2023-05-01T11:18:57.853Z,955.90
2023-05-01T11:19:57.797Z,955.91
2023-05-01T11:20:57.831Z,955.91
2023-05-01T11:22:01.845Z,955.97
2023-05-01T11:22:57.809Z,955.92
2023-05-01T11:23:57.847Z,955.93
2023-05-01T11:24:58.236Z,955.92
2023-05-01T11:25:57.745Z,955.92
2023-05-01T11:26:57.768Z,955.90
2023-05-01T11:27:57.898Z,955.90
2023-05-01T11:28:57.710Z,955.86
2023-05-01T11:29:57.692Z,955.87
2023-05-01T11:30:57.772Z,955.84
2023-05-01T11:31:57.736Z,955.89
2023-05-01T11:32:57.722Z,955.86
2023-05-01T11:33:57.688Z,955.88
2023-05-01T11:34:57.967Z,955.86
2023-05-01T11:35:57.629Z,955.82
2023-05-01T11:36:57.678Z,955.81
2023-05-01T11:37:57.633Z,955.81
2023-05-01T11:38:57.590Z,955.78
2023-05-01T11:39:57.570Z,955.79
2023-05-01T11:40:57.566Z,955.79
2023-05-01T11:41:57.643Z,955.81
2023-05-01T11:42:57.555Z,955.78
2023-05-01T11:43:57.563Z,955.82
2023-05-01T11:44:57.732Z,955.79
2023-05-01T11:45:57.559Z,955.84
2023-05-01T11:46:57.514Z,955.76
2023-05-01T11:47:57.703Z,955.80
2023-05-01T11:48:57.487Z,955.87
2023-05-01T11:49:57.472Z,955.84
2023-05-01T11:50:57.450Z,955.87
2023-05-01T11:51:57.498Z,955.84
2023-05-01T11:52:57.442Z,955.79
2023-05-01T11:53:57.422Z,955.83
2023-05-01T11:54:57.420Z,955.79
2023-05-01T11:55:57.405Z,955.84
2023-05-01T11:56:57.395Z,955.76
2023-05-01T11:57:57.402Z,955.78
2023-05-01T11:58:57.350Z,955.80
2023-05-01T11:59:57.355Z,955.78
2023-05-01T12:00:57.336Z,955.75
2023-05-01T12:01:57.416Z,955.80
2023-05-01T12:02:57.578Z,955.78
2023-05-01T12:03:57.506Z,955.86
2023-05-01T12:04:57.585Z,955.78
2023-05-01T12:05:57.350Z,955.83
2023-05-01T12:06:57.262Z,955.83
2023-05-01T12:07:57.260Z,955.82
2023-05-01T12:08:57.296Z,955.84
2023-05-01T12:09:57.269Z,955.82
2023-05-01T12:10:57.402Z,955.81
2023-05-01T12:11:57.218Z,955.81
2023-05-01T12:12:57.194Z,955.91
2023-05-01T12:13:57.197Z,955.86
2023-05-01T12:14:57.350Z,955.90
2023-05-01T12:15:57.194Z,955.85
2023-05-01T12:16:57.293Z,955.81
2023-05-01T12:17:57.269Z,955.82
2023-05-01T12:18:57.145Z,955.88
2023-05-01T12:19:57.153Z,955.86
2023-05-01T12:20:57.110Z,955.85
2023-05-01T12:21:57.128Z,955.80
2023-05-01T12:22:57.096Z,955.87
2023-05-01T12:23:57.101Z,955.86
2023-05-01T12:24:57.308Z,955.84
2023-05-01T12:25:57.118Z,955.87
2023-05-01T12:26:57.059Z,955.88
2023-05-01T12:27:57.056Z,955.88